sensor_id;sensor_type;location;lat;lon;timestamp;P1;durP1;ratioP1;P2;durP2;ratioP2
65656;SDS011;57397;50.096;14.404;2022-08-01T00:00:00;3.72;;;3.10;;
65656;SDS011;57397;50.096;14.404;2022-08-01T00:02:28;3.25;;;2.95;;
65656;SDS011;57397;50.096;14.404;2022-08-01T00:04:54;4.22;;;3.17;;
65656;SDS011;57397;50.096;14.404;2022-08-01T00:07:19;3.20;;;2.85;;
65656;SDS011;57397;50.096;14.404;2022-08-01T00:09:45;3.00;;;2.80;;
65656;SDS011;57397;50.096;14.404;2022-08-01T00:12:10;4.38;;;3.13;;
65656;SDS011;57397;50.096;14.404;2022-08-01T00:14:36;3.53;;;3.22;;
65656;SDS011;57397;50.096;14.404;2022-08-01T00:17:02;3.42;;;3.00;;
65656;SDS011;57397;50.096;14.404;2022-08-01T00:19:27;3.42;;;3.13;;
65656;SDS011;57397;50.096;14.404;2022-08-01T00:21:53;3.33;;;3.00;;
65656;SDS011;57397;50.096;14.404;2022-08-01T00:24:18;3.90;;;3.00;;
65656;SDS011;57397;50.096;14.404;2022-08-01T00:26:43;3.40;;;3.10;;
65656;SDS011;57397;50.096;14.404;2022-08-01T00:29:09;3.40;;;3.08;;
65656;SDS011;57397;50.096;14.404;2022-08-01T00:31:34;4.75;;;3.13;;
65656;SDS011;57397;50.096;14.404;2022-08-01T00:34:00;3.47;;;3.08;;
65656;SDS011;57397;50.096;14.404;2022-08-01T00:36:25;5.10;;;3.00;;
65656;SDS011;57397;50.096;14.404;2022-08-01T00:38:51;3.72;;;3.28;;
65656;SDS011;57397;50.096;14.404;2022-08-01T00:41:16;3.40;;;3.10;;
65656;SDS011;57397;50.096;14.404;2022-08-01T00:43:41;4.30;;;2.97;;
65656;SDS011;57397;50.096;14.404;2022-08-01T00:46:07;3.92;;;3.15;;
65656;SDS011;57397;50.096;14.404;2022-08-01T00:48:32;3.60;;;3.20;;
65656;SDS011;57397;50.096;14.404;2022-08-01T00:50:58;3.75;;;3.20;;
65656;SDS011;57397;50.096;14.404;2022-08-01T00:53:23;3.30;;;2.78;;
65656;SDS011;57397;50.096;14.404;2022-08-01T00:55:50;5.55;;;3.58;;
65656;SDS011;57397;50.096;14.404;2022-08-01T00:58:15;4.60;;;3.20;;
65656;SDS011;57397;50.096;14.404;2022-08-01T01:00:41;6.28;;;2.97;;
65656;SDS011;57397;50.096;14.404;2022-08-01T01:03:06;4.32;;;3.25;;
65656;SDS011;57397;50.096;14.404;2022-08-01T01:05:32;3.95;;;3.00;;
65656;SDS011;57397;50.096;14.404;2022-08-01T01:08:07;3.53;;;3.20;;
65656;SDS011;57397;50.096;14.404;2022-08-01T01:10:46;3.42;;;3.10;;
65656;SDS011;57397;50.096;14.404;2022-08-01T01:13:23;5.55;;;3.33;;
65656;SDS011;57397;50.096;14.404;2022-08-01T01:15:59;3.20;;;2.85;;
65656;SDS011;57397;50.096;14.404;2022-08-01T01:18:29;4.30;;;3.00;;
65656;SDS011;57397;50.096;14.404;2022-08-01T01:24:03;3.88;;;3.13;;
65656;SDS011;57397;50.096;14.404;2022-08-01T01:27:09;3.28;;;2.90;;
65656;SDS011;57397;50.096;14.404;2022-08-01T01:29:42;4.45;;;3.60;;
65656;SDS011;57397;50.096;14.404;2022-08-01T01:32:17;3.40;;;3.10;;
65656;SDS011;57397;50.096;14.404;2022-08-01T01:34:45;4.85;;;3.30;;
65656;SDS011;57397;50.096;14.404;2022-08-01T01:37:17;3.40;;;3.10;;
65656;SDS011;57397;50.096;14.404;2022-08-01T01:39:44;5.85;;;3.40;;
65656;SDS011;57397;50.096;14.404;2022-08-01T01:42:11;3.58;;;3.28;;
65656;SDS011;57397;50.096;14.404;2022-08-01T01:44:37;3.97;;;3.10;;
65656;SDS011;57397;50.096;14.404;2022-08-01T01:47:04;3.40;;;3.03;;
65656;SDS011;57397;50.096;14.404;2022-08-01T01:49:30;5.10;;;3.00;;
65656;SDS011;57397;50.096;14.404;2022-08-01T01:51:57;6.18;;;3.17;;
65656;SDS011;57397;50.096;14.404;2022-08-01T01:54:24;6.03;;;3.25;;
65656;SDS011;57397;50.096;14.404;2022-08-01T01:56:55;5.60;;;3.00;;
65656;SDS011;57397;50.096;14.404;2022-08-01T01:59:24;4.50;;;3.20;;
65656;SDS011;57397;50.096;14.404;2022-08-01T02:01:51;4.00;;;3.20;;
65656;SDS011;57397;50.096;14.404;2022-08-01T02:04:18;4.05;;;3.40;;
65656;SDS011;57397;50.096;14.404;2022-08-01T02:06:45;6.82;;;3.40;;
65656;SDS011;57397;50.096;14.404;2022-08-01T02:09:11;3.55;;;3.22;;
65656;SDS011;57397;50.096;14.404;2022-08-01T02:11:40;3.80;;;3.40;;
65656;SDS011;57397;50.096;14.404;2022-08-01T02:14:06;3.63;;;3.15;;
65656;SDS011;57397;50.096;14.404;2022-08-01T02:16:36;4.53;;;2.90;;
65656;SDS011;57397;50.096;14.404;2022-08-01T02:19:04;4.40;;;3.58;;
65656;SDS011;57397;50.096;14.404;2022-08-01T02:21:30;3.33;;;2.97;;
65656;SDS011;57397;50.096;14.404;2022-08-01T02:24:14;4.85;;;3.33;;
65656;SDS011;57397;50.096;14.404;2022-08-01T02:26:49;3.70;;;3.05;;
65656;SDS011;57397;50.096;14.404;2022-08-01T02:29:21;3.78;;;3.25;;
65656;SDS011;57397;50.096;14.404;2022-08-01T02:31:49;3.10;;;2.85;;
65656;SDS011;57397;50.096;14.404;2022-08-01T02:34:17;3.50;;;3.20;;
65656;SDS011;57397;50.096;14.404;2022-08-01T02:36:44;3.92;;;3.30;;
65656;SDS011;57397;50.096;14.404;2022-08-01T02:39:13;3.90;;;3.20;;
65656;SDS011;57397;50.096;14.404;2022-08-01T02:41:41;3.40;;;3.05;;
65656;SDS011;57397;50.096;14.404;2022-08-01T02:44:09;4.50;;;3.60;;
65656;SDS011;57397;50.096;14.404;2022-08-01T02:46:37;3.40;;;3.10;;
65656;SDS011;57397;50.096;14.404;2022-08-01T02:49:07;3.40;;;3.10;;
65656;SDS011;57397;50.096;14.404;2022-08-01T02:51:33;3.47;;;3.17;;
65656;SDS011;57397;50.096;14.404;2022-08-01T02:53:59;3.83;;;3.45;;
65656;SDS011;57397;50.096;14.404;2022-08-01T02:56:27;4.22;;;3.30;;
65656;SDS011;57397;50.096;14.404;2022-08-01T02:59:07;3.17;;;2.88;;
65656;SDS011;57397;50.096;14.404;2022-08-01T03:01:34;5.32;;;3.28;;
65656;SDS011;57397;50.096;14.404;2022-08-01T03:04:03;3.38;;;3.08;;
65656;SDS011;57397;50.096;14.404;2022-08-01T03:06:30;3.13;;;2.83;;
65656;SDS011;57397;50.096;14.404;2022-08-01T03:08:57;3.45;;;3.15;;
65656;SDS011;57397;50.096;14.404;2022-08-01T03:11:23;3.10;;;2.80;;
65656;SDS011;57397;50.096;14.404;2022-08-01T03:13:49;3.42;;;3.03;;
65656;SDS011;57397;50.096;14.404;2022-08-01T03:16:15;3.58;;;3.28;;
65656;SDS011;57397;50.096;14.404;2022-08-01T03:18:41;3.80;;;3.35;;
65656;SDS011;57397;50.096;14.404;2022-08-01T03:21:09;3.30;;;3.00;;
65656;SDS011;57397;50.096;14.404;2022-08-01T03:23:37;3.28;;;2.97;;
65656;SDS011;57397;50.096;14.404;2022-08-01T03:26:03;3.22;;;2.63;;
65656;SDS011;57397;50.096;14.404;2022-08-01T03:28:30;3.20;;;2.90;;
65656;SDS011;57397;50.096;14.404;2022-08-01T03:30:56;4.07;;;3.08;;
65656;SDS011;57397;50.096;14.404;2022-08-01T03:33:21;3.55;;;3.22;;
65656;SDS011;57397;50.096;14.404;2022-08-01T03:35:47;3.53;;;3.20;;
65656;SDS011;57397;50.096;14.404;2022-08-01T03:38:17;3.42;;;3.00;;
65656;SDS011;57397;50.096;14.404;2022-08-01T03:40:49;3.30;;;3.00;;
65656;SDS011;57397;50.096;14.404;2022-08-01T03:43:38;3.50;;;2.90;;
65656;SDS011;57397;50.096;14.404;2022-08-01T03:46:07;3.33;;;3.03;;
65656;SDS011;57397;50.096;14.404;2022-08-01T03:48:36;3.40;;;3.10;;
65656;SDS011;57397;50.096;14.404;2022-08-01T03:51:06;4.15;;;2.80;;
65656;SDS011;57397;50.096;14.404;2022-08-01T03:53:32;3.15;;;2.75;;
65656;SDS011;57397;50.096;14.404;2022-08-01T03:55:59;6.45;;;3.35;;
65656;SDS011;57397;50.096;14.404;2022-08-01T03:58:26;3.20;;;2.90;;
65656;SDS011;57397;50.096;14.404;2022-08-01T04:00:53;3.30;;;3.00;;
65656;SDS011;57397;50.096;14.404;2022-08-01T04:03:19;3.70;;;3.13;;
65656;SDS011;57397;50.096;14.404;2022-08-01T04:05:44;3.00;;;2.80;;
65656;SDS011;57397;50.096;14.404;2022-08-01T04:08:10;3.25;;;2.95;;
65656;SDS011;57397;50.096;14.404;2022-08-01T04:10:36;4.88;;;3.05;;
65656;SDS011;57397;50.096;14.404;2022-08-01T04:13:01;3.22;;;2.70;;
65656;SDS011;57397;50.096;14.404;2022-08-01T04:15:27;3.40;;;3.10;;
65656;SDS011;57397;50.096;14.404;2022-08-01T04:17:53;3.10;;;2.80;;
65656;SDS011;57397;50.096;14.404;2022-08-01T04:20:19;3.50;;;3.20;;
65656;SDS011;57397;50.096;14.404;2022-08-01T04:22:45;3.17;;;2.88;;
65656;SDS011;57397;50.096;14.404;2022-08-01T04:25:18;3.55;;;3.22;;
65656;SDS011;57397;50.096;14.404;2022-08-01T04:27:47;3.30;;;3.00;;
65656;SDS011;57397;50.096;14.404;2022-08-01T04:30:14;3.75;;;3.00;;
65656;SDS011;57397;50.096;14.404;2022-08-01T04:32:41;3.40;;;3.05;;
65656;SDS011;57397;50.096;14.404;2022-08-01T04:35:09;3.42;;;3.13;;
65656;SDS011;57397;50.096;14.404;2022-08-01T04:37:41;4.88;;;3.42;;
65656;SDS011;57397;50.096;14.404;2022-08-01T04:40:08;4.18;;;3.47;;
65656;SDS011;57397;50.096;14.404;2022-08-01T04:42:34;3.28;;;3.05;;
65656;SDS011;57397;50.096;14.404;2022-08-01T04:44:59;3.80;;;3.00;;
65656;SDS011;57397;50.096;14.404;2022-08-01T04:47:25;4.05;;;2.95;;
65656;SDS011;57397;50.096;14.404;2022-08-01T04:49:51;3.28;;;2.97;;
65656;SDS011;57397;50.096;14.404;2022-08-01T04:52:17;3.20;;;2.92;;
65656;SDS011;57397;50.096;14.404;2022-08-01T04:54:42;3.13;;;2.70;;
65656;SDS011;57397;50.096;14.404;2022-08-01T04:57:08;3.30;;;3.00;;
65656;SDS011;57397;50.096;14.404;2022-08-01T04:59:34;3.50;;;3.20;;
65656;SDS011;57397;50.096;14.404;2022-08-01T05:02:08;3.70;;;3.03;;
65656;SDS011;57397;50.096;14.404;2022-08-01T05:04:41;3.20;;;2.85;;
65656;SDS011;57397;50.096;14.404;2022-08-01T05:07:08;3.08;;;2.80;;
65656;SDS011;57397;50.096;14.404;2022-08-01T05:09:35;3.40;;;3.10;;
65656;SDS011;57397;50.096;14.404;2022-08-01T05:12:03;3.47;;;3.17;;
65656;SDS011;57397;50.096;14.404;2022-08-01T05:14:30;3.10;;;2.80;;
65656;SDS011;57397;50.096;14.404;2022-08-01T05:16:59;4.68;;;3.17;;
65656;SDS011;57397;50.096;14.404;2022-08-01T05:19:28;3.25;;;2.95;;
65656;SDS011;57397;50.096;14.404;2022-08-01T05:22:04;3.28;;;2.92;;
65656;SDS011;57397;50.096;14.404;2022-08-01T05:24:31;4.10;;;2.95;;
65656;SDS011;57397;50.096;14.404;2022-08-01T05:26:58;3.17;;;2.90;;
65656;SDS011;57397;50.096;14.404;2022-08-01T05:29:24;3.20;;;2.97;;
65656;SDS011;57397;50.096;14.404;2022-08-01T05:31:50;3.00;;;2.80;;
65656;SDS011;57397;50.096;14.404;2022-08-01T05:34:16;3.10;;;2.80;;
65656;SDS011;57397;50.096;14.404;2022-08-01T05:36:42;3.97;;;3.40;;
65656;SDS011;57397;50.096;14.404;2022-08-01T05:39:07;3.05;;;2.75;;
65656;SDS011;57397;50.096;14.404;2022-08-01T05:41:33;3.40;;;3.10;;
65656;SDS011;57397;50.096;14.404;2022-08-01T05:43:58;3.33;;;3.03;;
65656;SDS011;57397;50.096;14.404;2022-08-01T05:46:24;3.67;;;2.80;;
65656;SDS011;57397;50.096;14.404;2022-08-01T05:48:49;3.40;;;3.10;;
65656;SDS011;57397;50.096;14.404;2022-08-01T05:51:15;3.38;;;3.08;;
65656;SDS011;57397;50.096;14.404;2022-08-01T05:53:40;3.20;;;2.90;;
65656;SDS011;57397;50.096;14.404;2022-08-01T05:56:06;4.10;;;3.40;;
65656;SDS011;57397;50.096;14.404;2022-08-01T05:58:31;5.57;;;3.15;;
65656;SDS011;57397;50.096;14.404;2022-08-01T06:00:57;3.00;;;2.80;;
65656;SDS011;57397;50.096;14.404;2022-08-01T06:03:23;3.20;;;2.90;;
65656;SDS011;57397;50.096;14.404;2022-08-01T06:05:49;3.30;;;3.00;;
65656;SDS011;57397;50.096;14.404;2022-08-01T06:08:14;3.47;;;3.03;;
65656;SDS011;57397;50.096;14.404;2022-08-01T06:10:40;3.40;;;3.10;;
65656;SDS011;57397;50.096;14.404;2022-08-01T06:13:08;3.10;;;2.80;;
65656;SDS011;57397;50.096;14.404;2022-08-01T06:15:39;3.50;;;3.20;;
65656;SDS011;57397;50.096;14.404;2022-08-01T06:18:04;3.50;;;3.20;;
65656;SDS011;57397;50.096;14.404;2022-08-01T06:20:30;2.90;;;2.70;;
65656;SDS011;57397;50.096;14.404;2022-08-01T06:22:55;3.17;;;2.85;;
65656;SDS011;57397;50.096;14.404;2022-08-01T06:25:21;3.25;;;2.95;;
65656;SDS011;57397;50.096;14.404;2022-08-01T06:27:46;3.20;;;2.92;;
65656;SDS011;57397;50.096;14.404;2022-08-01T06:30:12;3.50;;;3.20;;
65656;SDS011;57397;50.096;14.404;2022-08-01T06:32:38;3.40;;;2.78;;
65656;SDS011;57397;50.096;14.404;2022-08-01T06:35:04;3.20;;;3.00;;
65656;SDS011;57397;50.096;14.404;2022-08-01T06:37:30;2.72;;;2.53;;
65656;SDS011;57397;50.096;14.404;2022-08-01T06:40:00;3.70;;;3.30;;
65656;SDS011;57397;50.096;14.404;2022-08-01T06:42:26;3.10;;;2.80;;
65656;SDS011;57397;50.096;14.404;2022-08-01T06:44:51;3.28;;;2.58;;
65656;SDS011;57397;50.096;14.404;2022-08-01T06:47:17;2.92;;;2.70;;
65656;SDS011;57397;50.096;14.404;2022-08-01T06:49:42;3.10;;;2.80;;
65656;SDS011;57397;50.096;14.404;2022-08-01T06:52:08;3.00;;;2.70;;
65656;SDS011;57397;50.096;14.404;2022-08-01T06:54:33;3.08;;;2.78;;
65656;SDS011;57397;50.096;14.404;2022-08-01T06:56:59;3.92;;;2.65;;
65656;SDS011;57397;50.096;14.404;2022-08-01T06:59:24;3.05;;;2.75;;
65656;SDS011;57397;50.096;14.404;2022-08-01T07:01:51;3.00;;;2.80;;
65656;SDS011;57397;50.096;14.404;2022-08-01T07:04:16;3.10;;;2.80;;
65656;SDS011;57397;50.096;14.404;2022-08-01T07:06:41;2.60;;;2.40;;
65656;SDS011;57397;50.096;14.404;2022-08-01T07:09:07;3.00;;;2.70;;
65656;SDS011;57397;50.096;14.404;2022-08-01T07:11:32;2.63;;;2.42;;
65656;SDS011;57397;50.096;14.404;2022-08-01T07:13:58;3.10;;;2.60;;
65656;SDS011;57397;50.096;14.404;2022-08-01T07:16:24;2.72;;;2.53;;
65656;SDS011;57397;50.096;14.404;2022-08-01T07:18:49;3.13;;;2.72;;
65656;SDS011;57397;50.096;14.404;2022-08-01T07:21:15;2.97;;;2.65;;
65656;SDS011;57397;50.096;14.404;2022-08-01T07:23:40;2.53;;;2.33;;
65656;SDS011;57397;50.096;14.404;2022-08-01T07:26:07;2.60;;;2.40;;
65656;SDS011;57397;50.096;14.404;2022-08-01T07:28:33;2.95;;;2.45;;
65656;SDS011;57397;50.096;14.404;2022-08-01T07:30:58;2.72;;;2.53;;
65656;SDS011;57397;50.096;14.404;2022-08-01T07:33:24;2.80;;;2.60;;
65656;SDS011;57397;50.096;14.404;2022-08-01T07:35:52;2.67;;;2.47;;
65656;SDS011;57397;50.096;14.404;2022-08-01T07:38:17;2.90;;;2.70;;
65656;SDS011;57397;50.096;14.404;2022-08-01T07:40:43;2.67;;;2.47;;
65656;SDS011;57397;50.096;14.404;2022-08-01T07:43:10;3.17;;;2.65;;
65656;SDS011;57397;50.096;14.404;2022-08-01T07:45:35;2.65;;;2.45;;
65656;SDS011;57397;50.096;14.404;2022-08-01T07:48:04;2.53;;;2.33;;
65656;SDS011;57397;50.096;14.404;2022-08-01T07:50:30;2.83;;;2.58;;
65656;SDS011;57397;50.096;14.404;2022-08-01T07:52:55;3.90;;;2.80;;
65656;SDS011;57397;50.096;14.404;2022-08-01T07:55:21;3.35;;;2.40;;
65656;SDS011;57397;50.096;14.404;2022-08-01T07:57:46;2.47;;;2.28;;
65656;SDS011;57397;50.096;14.404;2022-08-01T08:00:12;2.65;;;2.45;;
65656;SDS011;57397;50.096;14.404;2022-08-01T08:02:38;2.72;;;2.53;;
65656;SDS011;57397;50.096;14.404;2022-08-01T08:05:04;2.78;;;2.53;;
65656;SDS011;57397;50.096;14.404;2022-08-01T08:07:31;2.72;;;2.53;;
65656;SDS011;57397;50.096;14.404;2022-08-01T08:09:56;3.22;;;2.60;;
65656;SDS011;57397;50.096;14.404;2022-08-01T08:12:23;2.70;;;2.50;;
65656;SDS011;57397;50.096;14.404;2022-08-01T08:14:53;3.00;;;2.70;;
65656;SDS011;57397;50.096;14.404;2022-08-01T08:17:19;2.70;;;2.42;;
65656;SDS011;57397;50.096;14.404;2022-08-01T08:19:44;2.63;;;2.42;;
65656;SDS011;57397;50.096;14.404;2022-08-01T08:22:10;2.80;;;2.60;;
65656;SDS011;57397;50.096;14.404;2022-08-01T08:24:36;2.60;;;2.40;;
65656;SDS011;57397;50.096;14.404;2022-08-01T08:27:02;2.67;;;2.47;;
65656;SDS011;57397;50.096;14.404;2022-08-01T08:29:29;2.90;;;2.60;;
65656;SDS011;57397;50.096;14.404;2022-08-01T08:31:57;2.60;;;2.40;;
65656;SDS011;57397;50.096;14.404;2022-08-01T08:34:23;2.92;;;2.72;;
65656;SDS011;57397;50.096;14.404;2022-08-01T08:36:49;2.97;;;2.70;;
65656;SDS011;57397;50.096;14.404;2022-08-01T08:39:15;2.63;;;2.42;;
65656;SDS011;57397;50.096;14.404;2022-08-01T08:41:41;4.10;;;2.50;;
65656;SDS011;57397;50.096;14.404;2022-08-01T08:44:08;2.60;;;2.40;;
65656;SDS011;57397;50.096;14.404;2022-08-01T08:46:34;2.65;;;2.45;;
65656;SDS011;57397;50.096;14.404;2022-08-01T08:49:05;3.22;;;2.63;;
65656;SDS011;57397;50.096;14.404;2022-08-01T08:51:31;2.80;;;2.60;;
65656;SDS011;57397;50.096;14.404;2022-08-01T08:53:58;2.80;;;2.55;;
65656;SDS011;57397;50.096;14.404;2022-08-01T08:56:26;2.80;;;2.60;;
65656;SDS011;57397;50.096;14.404;2022-08-01T08:58:55;2.67;;;2.47;;
65656;SDS011;57397;50.096;14.404;2022-08-01T09:01:20;2.55;;;2.35;;
65656;SDS011;57397;50.096;14.404;2022-08-01T09:03:46;2.70;;;2.50;;
65656;SDS011;57397;50.096;14.404;2022-08-01T09:06:12;2.67;;;2.47;;
65656;SDS011;57397;50.096;14.404;2022-08-01T09:08:38;2.50;;;2.30;;
65656;SDS011;57397;50.096;14.404;2022-08-01T09:11:04;2.65;;;2.45;;
65656;SDS011;57397;50.096;14.404;2022-08-01T09:13:29;2.70;;;2.50;;
65656;SDS011;57397;50.096;14.404;2022-08-01T09:15:55;2.50;;;2.30;;
65656;SDS011;57397;50.096;14.404;2022-08-01T09:23:42;2.72;;;2.53;;
65656;SDS011;57397;50.096;14.404;2022-08-01T09:26:13;3.15;;;2.60;;
65656;SDS011;57397;50.096;14.404;2022-08-01T09:28:40;2.55;;;2.30;;
65656;SDS011;57397;50.096;14.404;2022-08-01T09:31:08;2.58;;;2.38;;
65656;SDS011;57397;50.096;14.404;2022-08-01T09:36:24;2.60;;;2.40;;
65656;SDS011;57397;50.096;14.404;2022-08-01T09:38:52;2.50;;;2.30;;
65656;SDS011;57397;50.096;14.404;2022-08-01T09:41:37;2.55;;;2.35;;
65656;SDS011;57397;50.096;14.404;2022-08-01T09:44:02;3.08;;;2.33;;
65656;SDS011;57397;50.096;14.404;2022-08-01T09:46:28;2.60;;;2.40;;
65656;SDS011;57397;50.096;14.404;2022-08-01T09:48:54;2.72;;;2.53;;
65656;SDS011;57397;50.096;14.404;2022-08-01T09:51:28;2.50;;;2.30;;
65656;SDS011;57397;50.096;14.404;2022-08-01T09:53:54;2.78;;;2.50;;
65656;SDS011;57397;50.096;14.404;2022-08-01T09:56:21;2.60;;;2.40;;
65656;SDS011;57397;50.096;14.404;2022-08-01T09:58:50;2.60;;;2.40;;
65656;SDS011;57397;50.096;14.404;2022-08-01T10:01:16;3.38;;;2.40;;
65656;SDS011;57397;50.096;14.404;2022-08-01T10:03:44;2.35;;;2.15;;
65656;SDS011;57397;50.096;14.404;2022-08-01T10:06:19;2.50;;;2.30;;
65656;SDS011;57397;50.096;14.404;2022-08-01T10:08:46;2.22;;;2.05;;
65656;SDS011;57397;50.096;14.404;2022-08-01T10:11:12;2.70;;;2.50;;
65656;SDS011;57397;50.096;14.404;2022-08-01T10:13:38;2.58;;;2.38;;
65656;SDS011;57397;50.096;14.404;2022-08-01T10:16:05;2.75;;;2.55;;
65656;SDS011;57397;50.096;14.404;2022-08-01T10:18:32;2.50;;;2.30;;
65656;SDS011;57397;50.096;14.404;2022-08-01T10:20:59;2.88;;;2.50;;
65656;SDS011;57397;50.096;14.404;2022-08-01T10:23:29;2.50;;;2.30;;
65656;SDS011;57397;50.096;14.404;2022-08-01T10:25:58;2.72;;;2.53;;
65656;SDS011;57397;50.096;14.404;2022-08-01T10:28:24;2.55;;;2.35;;
65656;SDS011;57397;50.096;14.404;2022-08-01T10:30:50;2.75;;;2.45;;
65656;SDS011;57397;50.096;14.404;2022-08-01T10:33:16;2.60;;;2.40;;
65656;SDS011;57397;50.096;14.404;2022-08-01T10:35:42;2.85;;;2.30;;
65656;SDS011;57397;50.096;14.404;2022-08-01T10:38:11;3.15;;;2.13;;
65656;SDS011;57397;50.096;14.404;2022-08-01T10:40:37;2.53;;;2.33;;
65656;SDS011;57397;50.096;14.404;2022-08-01T10:43:03;2.75;;;2.45;;
65656;SDS011;57397;50.096;14.404;2022-08-01T10:45:29;2.60;;;2.40;;
65656;SDS011;57397;50.096;14.404;2022-08-01T10:48:14;2.60;;;2.30;;
65656;SDS011;57397;50.096;14.404;2022-08-01T10:50:45;2.42;;;2.22;;
65656;SDS011;57397;50.096;14.404;2022-08-01T10:53:16;2.63;;;2.22;;
65656;SDS011;57397;50.096;14.404;2022-08-01T10:55:46;2.58;;;2.30;;
65656;SDS011;57397;50.096;14.404;2022-08-01T10:58:22;2.63;;;2.40;;
65656;SDS011;57397;50.096;14.404;2022-08-01T11:01:11;2.60;;;2.40;;
65656;SDS011;57397;50.096;14.404;2022-08-01T11:03:43;2.58;;;2.35;;
65656;SDS011;57397;50.096;14.404;2022-08-01T11:08:58;2.33;;;2.13;;
65656;SDS011;57397;50.096;14.404;2022-08-01T11:11:26;2.75;;;2.15;;
65656;SDS011;57397;50.096;14.404;2022-08-01T11:14:09;2.40;;;2.20;;
65656;SDS011;57397;50.096;14.404;2022-08-01T11:16:37;2.47;;;2.28;;
65656;SDS011;57397;50.096;14.404;2022-08-01T11:19:04;2.50;;;2.22;;
65656;SDS011;57397;50.096;14.404;2022-08-01T11:24:15;2.40;;;2.20;;
65656;SDS011;57397;50.096;14.404;2022-08-01T11:26:41;2.50;;;2.30;;
65656;SDS011;57397;50.096;14.404;2022-08-01T11:29:41;2.17;;;1.98;;
65656;SDS011;57397;50.096;14.404;2022-08-01T11:32:25;2.30;;;2.10;;
65656;SDS011;57397;50.096;14.404;2022-08-01T11:34:52;2.33;;;2.13;;
65656;SDS011;57397;50.096;14.404;2022-08-01T11:37:22;2.38;;;2.17;;
65656;SDS011;57397;50.096;14.404;2022-08-01T11:45:53;2.40;;;2.20;;
65656;SDS011;57397;50.096;14.404;2022-08-01T11:48:26;2.28;;;2.08;;
65656;SDS011;57397;50.096;14.404;2022-08-01T11:50:53;2.30;;;2.10;;
65656;SDS011;57397;50.096;14.404;2022-08-01T11:53:20;2.25;;;2.05;;
65656;SDS011;57397;50.096;14.404;2022-08-01T11:55:46;2.20;;;2.00;;
65656;SDS011;57397;50.096;14.404;2022-08-01T11:58:13;2.30;;;2.10;;
65656;SDS011;57397;50.096;14.404;2022-08-01T12:00:39;2.15;;;1.95;;
65656;SDS011;57397;50.096;14.404;2022-08-01T12:03:05;1.90;;;1.75;;
65656;SDS011;57397;50.096;14.404;2022-08-01T12:05:35;1.90;;;1.80;;
65656;SDS011;57397;50.096;14.404;2022-08-01T12:08:02;2.00;;;1.80;;
65656;SDS011;57397;50.096;14.404;2022-08-01T12:10:29;1.80;;;1.70;;
65656;SDS011;57397;50.096;14.404;2022-08-01T12:13:01;2.03;;;1.90;;
65656;SDS011;57397;50.096;14.404;2022-08-01T12:15:29;2.38;;;2.17;;
65656;SDS011;57397;50.096;14.404;2022-08-01T12:18:01;2.20;;;2.00;;
65656;SDS011;57397;50.096;14.404;2022-08-01T12:20:31;2.13;;;1.92;;
65656;SDS011;57397;50.096;14.404;2022-08-01T12:23:00;2.42;;;1.95;;
65656;SDS011;57397;50.096;14.404;2022-08-01T12:25:32;2.00;;;1.80;;
65656;SDS011;57397;50.096;14.404;2022-08-01T12:28:01;1.95;;;1.80;;
65656;SDS011;57397;50.096;14.404;2022-08-01T12:30:29;2.00;;;1.80;;
65656;SDS011;57397;50.096;14.404;2022-08-01T12:32:56;2.30;;;1.90;;
65656;SDS011;57397;50.096;14.404;2022-08-01T12:35:26;2.20;;;2.00;;
65656;SDS011;57397;50.096;14.404;2022-08-01T12:37:56;2.22;;;2.03;;
65656;SDS011;57397;50.096;14.404;2022-08-01T12:40:31;2.17;;;1.70;;
65656;SDS011;57397;50.096;14.404;2022-08-01T12:43:06;2.15;;;1.95;;
65656;SDS011;57397;50.096;14.404;2022-08-01T12:45:35;1.92;;;1.73;;
65656;SDS011;57397;50.096;14.404;2022-08-01T12:48:05;2.10;;;1.90;;
65656;SDS011;57397;50.096;14.404;2022-08-01T12:50:36;2.05;;;1.92;;
65656;SDS011;57397;50.096;14.404;2022-08-01T12:53:03;1.88;;;1.77;;
65656;SDS011;57397;50.096;14.404;2022-08-01T12:55:29;2.10;;;1.90;;
65656;SDS011;57397;50.096;14.404;2022-08-01T12:58:04;1.90;;;1.80;;
65656;SDS011;57397;50.096;14.404;2022-08-01T13:00:32;2.13;;;1.92;;
65656;SDS011;57397;50.096;14.404;2022-08-01T13:03:05;1.92;;;1.83;;
65656;SDS011;57397;50.096;14.404;2022-08-01T13:08:11;2.53;;;1.90;;
65656;SDS011;57397;50.096;14.404;2022-08-01T13:10:37;2.20;;;2.00;;
65656;SDS011;57397;50.096;14.404;2022-08-01T13:13:03;1.98;;;1.67;;
65656;SDS011;57397;50.096;14.404;2022-08-01T13:15:30;2.17;;;1.88;;
65656;SDS011;57397;50.096;14.404;2022-08-01T13:17:57;2.10;;;1.90;;
65656;SDS011;57397;50.096;14.404;2022-08-01T13:20:29;1.90;;;1.80;;
65656;SDS011;57397;50.096;14.404;2022-08-01T13:23:09;2.63;;;1.83;;
65656;SDS011;57397;50.096;14.404;2022-08-01T13:28:16;2.00;;;1.88;;
65656;SDS011;57397;50.096;14.404;2022-08-01T13:33:22;1.95;;;1.75;;
65656;SDS011;57397;50.096;14.404;2022-08-01T13:35:49;2.00;;;1.80;;
65656;SDS011;57397;50.096;14.404;2022-08-01T13:38:16;1.77;;;1.67;;
65656;SDS011;57397;50.096;14.404;2022-08-01T13:40:44;1.83;;;1.70;;
65656;SDS011;57397;50.096;14.404;2022-08-01T13:43:10;2.30;;;1.70;;
65656;SDS011;57397;50.096;14.404;2022-08-01T13:45:35;1.95;;;1.75;;
65656;SDS011;57397;50.096;14.404;2022-08-01T13:48:01;1.52;;;1.42;;
65656;SDS011;57397;50.096;14.404;2022-08-01T13:50:27;2.03;;;1.77;;
65656;SDS011;57397;50.096;14.404;2022-08-01T13:52:52;1.77;;;1.67;;
65656;SDS011;57397;50.096;14.404;2022-08-01T13:55:18;2.30;;;1.92;;
65656;SDS011;57397;50.096;14.404;2022-08-01T13:57:43;1.77;;;1.65;;
65656;SDS011;57397;50.096;14.404;2022-08-01T14:00:09;1.67;;;1.58;;
65656;SDS011;57397;50.096;14.404;2022-08-01T14:02:35;1.70;;;1.60;;
65656;SDS011;57397;50.096;14.404;2022-08-01T14:05:00;3.35;;;1.90;;
65656;SDS011;57397;50.096;14.404;2022-08-01T14:07:26;1.67;;;1.58;;
65656;SDS011;57397;50.096;14.404;2022-08-01T14:09:52;1.80;;;1.70;;
65656;SDS011;57397;50.096;14.404;2022-08-01T14:12:18;2.00;;;1.80;;
65656;SDS011;57397;50.096;14.404;2022-08-01T14:14:43;1.70;;;1.60;;
65656;SDS011;57397;50.096;14.404;2022-08-01T14:17:08;1.80;;;1.70;;
65656;SDS011;57397;50.096;14.404;2022-08-01T14:19:34;2.33;;;1.80;;
65656;SDS011;57397;50.096;14.404;2022-08-01T14:21:59;2.00;;;1.70;;
65656;SDS011;57397;50.096;14.404;2022-08-01T14:24:28;2.30;;;1.60;;
65656;SDS011;57397;50.096;14.404;2022-08-01T14:26:53;1.88;;;1.70;;
65656;SDS011;57397;50.096;14.404;2022-08-01T14:29:19;2.53;;;1.60;;
65656;SDS011;57397;50.096;14.404;2022-08-01T14:31:44;1.83;;;1.67;;
65656;SDS011;57397;50.096;14.404;2022-08-01T14:34:10;1.85;;;1.60;;
65656;SDS011;57397;50.096;14.404;2022-08-01T14:36:35;1.60;;;1.50;;
65656;SDS011;57397;50.096;14.404;2022-08-01T14:39:00;2.00;;;1.65;;
65656;SDS011;57397;50.096;14.404;2022-08-01T14:41:29;1.58;;;1.48;;
65656;SDS011;57397;50.096;14.404;2022-08-01T14:43:54;3.28;;;1.70;;
65656;SDS011;57397;50.096;14.404;2022-08-01T14:46:20;1.85;;;1.55;;
65656;SDS011;57397;50.096;14.404;2022-08-01T14:48:45;1.73;;;1.52;;
65656;SDS011;57397;50.096;14.404;2022-08-01T14:51:11;1.75;;;1.65;;
65656;SDS011;57397;50.096;14.404;2022-08-01T14:53:36;2.05;;;1.85;;
65656;SDS011;57397;50.096;14.404;2022-08-01T14:56:05;1.70;;;1.60;;
65656;SDS011;57397;50.096;14.404;2022-08-01T14:58:47;1.63;;;1.52;;
65656;SDS011;57397;50.096;14.404;2022-08-01T15:01:13;1.85;;;1.73;;
65656;SDS011;57397;50.096;14.404;2022-08-01T15:03:39;1.50;;;1.40;;
65656;SDS011;57397;50.096;14.404;2022-08-01T15:06:05;1.88;;;1.60;;